Time;durP1;ratioP1;P1;durP2;ratioP2;P2;SDS_P1;SDS_P2;PMS_P1;PMS_P2;Temp;Humidity;BMP_temperature;BMP_pressure;BME280_temperature;BME280_humidity;BME280_pressure;Samples;Min_cycle;Max_cycle;Signal;HPM_P1;HPM_P2
2023/07/13 00:01:31;;;;;;;6.80;1.80;;;;;;;19.96;51.97;99610.31;5030942;28;20057;-79
2023/07/13 00:03:59;;;;;;;5.95;1.80;;;;;;;19.91;51.87;99608.94;5030676;28;20057;-80
2023/07/13 00:06:30;;;;;;;6.38;1.60;;;;;;;19.90;52.03;99606.44;5029758;28;20133;-79
2023/07/13 00:08:56;;;;;;;4.07;1.50;;;;;;;19.86;51.86;99605.91;5030902;28;20052;-80
2023/07/13 00:11:23;;;;;;;5.82;1.70;;;;;;;19.83;52.25;99611.53;5030927;28;20085;-79
2023/07/13 00:13:49;;;;;;;5.53;1.58;;;;;;;19.82;52.38;99619.69;5030499;28;20427;-79
2023/07/13 00:16:15;;;;;;;7.38;1.95;;;;;;;19.80;52.38;99619.84;5030515;28;20128;-79
2023/07/13 00:18:42;;;;;;;7.07;2.03;;;;;;;19.78;52.42;99624.50;5030507;28;20393;-79
2023/07/13 00:21:08;;;;;;;8.13;1.65;;;;;;;19.77;52.38;99629.00;5030545;28;20053;-79
2023/07/13 00:23:37;;;;;;;7.43;1.75;;;;;;;19.75;52.93;99619.47;5030724;28;20140;-82
2023/07/13 00:26:05;;;;;;;5.15;1.58;;;;;;;19.74;52.70;99623.13;5030739;28;20151;-79
2023/07/13 00:28:33;;;;;;;4.00;1.40;;;;;;;19.73;52.64;99626.81;5030289;28;20057;-79
2023/07/13 00:31:00;;;;;;;5.35;1.88;;;;;;;19.73;52.94;99621.47;5030663;28;20083;-79
2023/07/13 00:33:28;;;;;;;4.22;1.55;;;;;;;19.71;52.64;99624.28;5012899;28;20053;-79
2023/07/13 00:35:56;;;;;;;6.47;1.55;;;;;;;19.69;52.64;99622.75;5030288;28;20492;-79
2023/07/13 00:38:23;;;;;;;11.45;2.30;;;;;;;19.68;52.79;99624.56;5030083;28;20435;-79
2023/07/13 00:40:49;;;;;;;6.47;1.77;;;;;;;19.66;52.45;99632.72;5030337;28;20049;-80
2023/07/13 00:43:22;;;;;;;8.48;2.20;;;;;;;19.63;52.58;99626.84;5013045;28;20646;-80
2023/07/13 00:45:48;;;;;;;8.27;2.35;;;;;;;19.63;52.54;99627.69;5030350;28;20060;-80
2023/07/13 00:48:20;;;;;;;4.97;1.70;;;;;;;19.58;52.59;99629.97;5030320;28;20472;-80
2023/07/13 00:50:49;;;;;;;7.85;2.00;;;;;;;19.55;52.79;99630.25;5030418;28;20049;-80
2023/07/13 00:53:17;;;;;;;5.90;2.17;;;;;;;19.54;52.75;99631.25;5030594;28;20069;-80
2023/07/13 00:55:44;;;;;;;4.78;1.88;;;;;;;19.52;52.78;99630.56;5030469;28;20076;-80
2023/07/13 00:58:11;;;;;;;6.00;1.40;;;;;;;19.50;52.73;99628.03;5030030;28;20049;-80
2023/07/13 01:00:39;;;;;;;6.43;1.55;;;;;;;19.47;53.07;99628.34;5029588;28;20548;-80
2023/07/13 01:03:05;;;;;;;8.23;2.10;;;;;;;19.47;52.98;99628.34;5013128;28;20065;-80
2023/07/13 01:05:34;;;;;;;5.55;2.08;;;;;;;19.46;52.98;99631.16;5012860;28;20061;-80
2023/07/13 01:08:02;;;;;;;8.43;1.75;;;;;;;19.44;53.03;99625.97;5030080;28;20060;-80
2023/07/13 01:10:28;;;;;;;9.43;1.90;;;;;;;19.42;53.14;99619.09;5029844;28;20045;-80
2023/07/13 01:12:54;;;;;;;10.25;1.70;;;;;;;19.41;53.47;99626.28;5030058;28;20507;-80
2023/07/13 01:15:42;;;;;;;5.78;1.77;;;;;;;19.35;53.27;99618.84;5030221;28;20089;-79
2023/07/13 01:18:15;;;;;;;3.85;1.45;;;;;;;19.36;53.22;99626.72;5031457;28;20049;-80
2023/07/13 01:20:52;;;;;;;7.45;1.85;;;;;;;19.33;53.18;99621.66;5034212;28;20064;-80
2023/07/13 01:23:19;;;;;;;8.82;2.03;;;;;;;19.33;53.09;99619.00;5033997;28;20059;-80
2023/07/13 01:25:45;;;;;;;5.47;1.85;;;;;;;19.30;53.23;99627.31;5034340;28;20141;-80
2023/07/13 01:28:12;;;;;;;11.10;2.72;;;;;;;19.28;53.38;99615.94;5034041;28;20090;-80
2023/07/13 01:30:40;;;;;;;8.10;1.88;;;;;;;19.25;53.30;99609.06;5034145;28;20144;-80
2023/07/13 01:33:07;;;;;;;5.78;2.03;;;;;;;19.22;53.49;99606.69;5016554;28;20049;-80
2023/07/13 01:35:34;;;;;;;5.50;1.90;;;;;;;19.21;53.37;99604.19;5034053;28;20050;-80
2023/07/13 01:38:01;;;;;;;6.82;1.88;;;;;;;19.18;53.66;99607.13;5033567;28;20057;-80
2023/07/13 01:40:29;;;;;;;6.82;1.88;;;;;;;19.16;53.95;99609.09;5033523;28;20516;-80
2023/07/13 01:42:56;;;;;;;6.50;2.35;;;;;;;19.12;53.97;99603.22;5033711;28;20519;-80
2023/07/13 01:45:24;;;;;;;7.13;2.20;;;;;;;19.10;54.10;99614.03;5033512;28;20546;-80
2023/07/13 01:47:50;;;;;;;5.72;1.98;;;;;;;19.07;54.13;99610.84;5033699;28;20049;-80
2023/07/13 01:50:17;;;;;;;6.55;2.13;;;;;;;19.03;54.30;99607.59;5032929;28;20050;-80
2023/07/13 01:52:43;;;;;;;8.30;2.08;;;;;;;19.01;54.24;99601.56;5033730;28;20053;-80
2023/07/13 01:55:10;;;;;;;4.97;1.90;;;;;;;18.98;54.34;99592.03;5033624;28;20147;-80
2023/07/13 01:57:36;;;;;;;5.30;2.25;;;;;;;18.96;54.58;99599.34;5033547;28;20046;-80
2023/07/13 02:00:05;;;;;;;10.02;2.03;;;;;;;18.95;54.46;99612.81;5033362;28;20055;-80
2023/07/13 02:02:32;;;;;;;8.43;2.67;;;;;;;18.92;54.44;99602.44;5033371;28;20492;-80
2023/07/13 02:04:59;;;;;;;5.05;2.22;;;;;;;18.90;54.43;99599.91;5033219;28;20053;-80
2023/07/13 02:07:25;;;;;;;6.18;2.35;;;;;;;18.87;54.68;99613.53;5033273;28;20053;-80
2023/07/13 02:09:52;;;;;;;6.00;2.22;;;;;;;18.85;54.64;99600.38;5015637;28;20431;-80
2023/07/13 02:12:18;;;;;;;7.78;2.03;;;;;;;18.82;54.99;99608.66;5033434;28;20488;-80
2023/07/13 02:14:45;;;;;;;6.13;2.20;;;;;;;18.79;54.83;99608.94;5033144;28;20053;-80
2023/07/13 02:17:13;;;;;;;8.60;2.20;;;;;;;18.79;55.13;99614.25;5032956;28;20045;-80
2023/07/13 02:19:40;;;;;;;7.45;2.10;;;;;;;18.77;55.47;99604.72;5032773;28;20053;-80
2023/07/13 02:22:06;;;;;;;11.25;2.22;;;;;;;18.77;55.35;99618.91;5015022;28;20042;-80
2023/07/13 02:24:32;;;;;;;9.82;2.53;;;;;;;18.76;55.20;99622.53;5032845;28;20049;-80
2023/07/13 02:26:59;;;;;;;7.25;2.70;;;;;;;18.77;55.47;99624.25;5033030;28;20145;-80
2023/07/13 02:29:25;;;;;;;9.25;2.70;;;;;;;18.77;55.67;99618.91;5031621;28;20060;-80
2023/07/13 02:31:52;;;;;;;6.10;2.63;;;;;;;18.76;55.01;99625.22;5032772;28;20496;-80
2023/07/13 02:34:18;;;;;;;6.38;2.58;;;;;;;18.74;55.69;99620.03;5032882;28;20053;-80
2023/07/13 02:36:45;;;;;;;4.90;2.20;;;;;;;18.72;55.96;99614.00;5032746;28;20132;-79
2023/07/13 02:39:12;;;;;;;7.88;2.33;;;;;;;18.72;55.61;99614.00;5032911;28;20053;-80
2023/07/13 02:44:26;;;;;;;7.28;2.22;;;;;;;18.68;55.78;99619.75;5011673;28;20145;-75
2023/07/13 02:46:53;;;;;;;5.30;2.65;;;;;;;18.65;55.62;99620.88;5011520;28;20111;-75
2023/07/13 02:49:19;;;;;;;5.65;2.40;;;;;;;18.64;55.70;99623.72;5013563;28;20082;-74
2023/07/13 02:51:47;;;;;;;9.45;2.53;;;;;;;18.60;55.87;99615.16;4999656;28;20136;-74
2023/07/13 02:54:13;;;;;;;6.63;2.38;;;;;;;18.56;56.14;99614.59;4993654;28;20050;-75
2023/07/13 02:56:40;;;;;;;8.98;2.40;;;;;;;18.54;55.97;99621.88;4993268;28;20054;-75
2023/07/13 02:59:07;;;;;;;6.05;2.30;;;;;;;18.49;55.82;99622.31;4993513;28;20085;-75
2023/07/13 03:01:35;;;;;;;6.15;2.42;;;;;;;18.46;56.35;99616.41;5002132;28;20073;-77
2023/07/13 03:04:02;;;;;;;5.25;2.13;;;;;;;18.41;56.21;99622.19;5013034;28;20584;-75
2023/07/13 03:06:32;;;;;;;7.00;2.38;;;;;;;18.38;56.25;99622.47;4995368;28;20049;-75
2023/07/13 03:08:59;;;;;;;8.18;2.65;;;;;;;18.38;56.19;99626.97;5012818;28;20069;-76
2023/07/13 03:11:27;;;;;;;8.15;2.17;;;;;;;18.37;56.37;99628.78;5011147;28;20050;-76
2023/07/13 03:13:55;;;;;;;5.70;1.92;;;;;;;18.34;56.37;99621.94;5012376;28;20551;-76
2023/07/13 03:16:22;;;;;;;7.25;2.40;;;;;;;18.33;56.42;99624.72;5012651;28;20049;-74
2023/07/13 03:18:49;;;;;;;9.77;2.38;;;;;;;18.32;56.40;99623.88;5012613;28;20049;-76
2023/07/13 03:21:16;;;;;;;9.90;2.58;;;;;;;18.29;56.36;99624.19;5011975;28;20706;-75
2023/07/13 03:23:43;;;;;;;8.82;2.33;;;;;;;18.29;56.56;99631.31;4993027;28;20141;-76
2023/07/13 03:26:13;;;;;;;5.20;2.20;;;;;;;18.27;56.47;99635.97;4992768;28;20086;-77
2023/07/13 03:28:40;;;;;;;6.03;2.10;;;;;;;18.27;56.61;99643.94;4992734;28;20060;-76
2023/07/13 03:31:10;;;;;;;8.52;2.40;;;;;;;18.22;56.86;99639.88;4996725;28;20049;-74
2023/07/13 03:33:37;;;;;;;6.32;2.38;;;;;;;18.22;56.69;99633.69;5012573;28;20053;-75
2023/07/13 03:36:06;;;;;;;6.40;1.90;;;;;;;18.19;56.67;99640.16;5012200;28;20100;-75
2023/07/13 03:38:33;;;;;;;11.50;2.55;;;;;;;18.18;56.94;99641.16;5012318;28;20046;-75
2023/07/13 03:41:00;;;;;;;7.28;2.60;;;;;;;18.19;56.83;99644.63;5011684;28;20669;-75
2023/07/13 03:43:27;;;;;;;5.18;2.03;;;;;;;18.18;56.75;99640.28;4996276;28;20505;-74
2023/07/13 03:45:54;;;;;;;8.30;2.10;;;;;;;18.16;57.09;99642.28;5004908;28;20057;-74
2023/07/13 03:48:20;;;;;;;8.85;2.20;;;;;;;18.16;56.80;99642.28;4992457;28;20050;-76
2023/07/13 03:50:48;;;;;;;5.90;2.42;;;;;;;18.16;57.08;99642.28;4992289;28;20457;-74
2023/07/13 03:53:15;;;;;;;4.72;2.05;;;;;;;18.17;57.07;99649.28;5007810;28;20053;-75
2023/07/13 03:55:42;;;;;;;6.97;2.13;;;;;;;18.17;56.80;99643.94;4984022;28;20050;-74
2023/07/13 03:58:40;;;;;;;5.40;2.08;;;;;;;18.12;57.09;99643.53;4992287;28;20093;-76
2023/07/13 04:01:08;;;;;;;4.20;2.15;;;;;;;18.17;56.97;99649.28;4992271;28;20046;-75
2023/07/13 04:03:36;;;;;;;10.65;2.28;;;;;;;18.15;56.75;99661.88;5007389;28;20456;-75
2023/07/13 04:06:04;;;;;;;6.38;2.05;;;;;;;18.13;57.00;99656.69;5011541;28;20049;-74
2023/07/13 04:08:33;;;;;;;5.75;2.13;;;;;;;18.12;57.11;99662.19;4994158;28;20532;-76
2023/07/13 04:11:02;;;;;;;8.63;2.78;;;;;;;18.09;57.04;99653.47;5011977;28;20057;-74
2023/07/13 04:13:28;;;;;;;4.57;2.35;;;;;;;18.07;56.96;99655.41;4999776;28;20417;-75
2023/07/13 04:15:55;;;;;;;11.55;2.92;;;;;;;18.06;57.17;99656.38;4991948;28;20092;-74
2023/07/13 04:18:22;;;;;;;7.72;2.90;;;;;;;18.05;57.25;99654.69;4991773;28;20133;-75
2023/07/13 04:20:50;;;;;;;5.95;2.58;;;;;;;18.04;57.32;99668.13;4974663;28;20054;-75
2023/07/13 04:23:17;;;;;;;4.13;1.90;;;;;;;18.04;57.43;99671.66;4998864;28;20042;-76
2023/07/13 04:25:46;;;;;;;9.40;2.38;;;;;;;18.03;57.65;99663.81;5011553;28;20054;-75
2023/07/13 04:28:12;;;;;;;8.43;2.70;;;;;;;18.04;57.99;99669.00;5011430;28;20068;-77
2023/07/13 04:30:39;;;;;;;6.82;2.58;;;;;;;18.09;57.89;99669.44;5011473;28;20137;-76
2023/07/13 04:33:06;;;;;;;4.72;1.95;;;;;;;18.13;58.17;99671.84;5007875;28;20042;-75
2023/07/13 04:35:33;;;;;;;5.78;2.33;;;;;;;18.18;57.85;99675.78;4991724;28;20054;-76
2023/07/13 04:37:59;;;;;;;5.60;2.28;;;;;;;18.22;57.96;99668.34;4991717;28;20046;-75
2023/07/13 04:40:27;;;;;;;6.68;2.50;;;;;;;18.27;57.86;99675.94;4991648;28;20512;-75
2023/07/13 04:42:54;;;;;;;10.05;3.15;;;;;;;18.30;57.89;99679.13;4991642;28;20172;-75
2023/07/13 04:45:21;;;;;;;6.47;2.28;;;;;;;18.34;57.68;99683.22;5009835;28;20054;-75
2023/07/13 04:47:47;;;;;;;7.22;2.58;;;;;;;18.38;57.93;99680.28;5010838;28;20489;-76
2023/07/13 04:50:22;;;;;;;6.97;2.17;;;;;;;18.42;57.75;99678.97;5011312;28;20088;-75
2023/07/13 04:52:52;;;;;;;8.13;2.38;;;;;;;18.45;57.49;99676.91;5010640;28;20046;-76
2023/07/13 04:55:20;;;;;;;4.95;2.17;;;;;;;18.52;57.81;99679.00;4995005;28;20146;-75
2023/07/13 04:57:47;;;;;;;4.78;2.17;;;;;;;18.54;57.37;99677.03;4991354;28;20050;-76
2023/07/13 05:00:15;;;;;;;7.05;2.35;;;;;;;18.56;57.27;99681.25;4992369;28;20057;-75
2023/07/13 05:02:45;;;;;;;4.85;2.05;;;;;;;18.58;57.38;99687.25;4991480;28;20618;-75
2023/07/13 05:05:12;;;;;;;7.85;2.17;;;;;;;18.60;57.32;99682.63;4991370;28;20480;-76
2023/07/13 05:07:39;;;;;;;7.43;2.33;;;;;;;18.61;57.34;99681.66;4991564;28;20116;-75
2023/07/13 05:10:06;;;;;;;7.15;2.63;;;;;;;18.62;57.39;99680.66;4998759;28;20041;-75
2023/07/13 05:12:33;;;;;;;10.02;2.00;;;;;;;18.65;57.35;99690.19;4998901;28;20050;-75
2023/07/13 05:15:01;;;;;;;7.45;2.25;;;;;;;18.66;57.75;99685.72;5005520;28;20068;-76
2023/07/13 05:17:28;;;;;;;9.65;2.30;;;;;;;18.67;57.50;99690.91;5010817;28;20046;-75
2023/07/13 05:19:55;;;;;;;9.48;2.45;;;;;;;18.68;57.48;99689.06;5009319;28;20058;-76
2023/07/13 05:22:22;;;;;;;7.78;2.30;;;;;;;18.70;57.68;99687.13;4993443;28;20100;-76
2023/07/13 05:24:48;;;;;;;8.27;2.72;;;;;;;18.73;57.82;99689.50;5010678;28;20081;-75
2023/07/13 05:27:15;;;;;;;6.97;2.17;;;;;;;18.77;57.69;99696.25;5010485;28;20054;-75
2023/07/13 05:29:42;;;;;;;5.22;2.17;;;;;;;18.80;57.66;99687.94;4993353;28;20049;-76
2023/07/13 05:32:08;;;;;;;6.30;2.03;;;;;;;18.82;57.38;99688.66;4991955;28;20375;-75
2023/07/13 05:34:35;;;;;;;10.07;3.08;;;;;;;18.83;57.26;99693.00;5006298;28;20050;-75
2023/07/13 05:37:02;;;;;;;7.30;2.13;;;;;;;18.83;57.23;99687.66;4990873;28;20108;-76
2023/07/13 05:39:28;;;;;;;7.03;2.45;;;;;;;18.84;57.40;99691.19;4990970;28;20050;-76
2023/07/13 05:41:55;;;;;;;6.60;2.25;;;;;;;18.83;57.39;99698.31;5019988;28;20057;-76
2023/07/13 05:44:22;;;;;;;8.52;2.63;;;;;;;18.83;57.36;99700.13;5010792;28;20057;-75
2023/07/13 05:46:48;;;;;;;6.63;2.78;;;;;;;18.82;57.46;99704.66;5010476;28;20046;-77
2023/07/13 05:49:15;;;;;;;5.88;2.45;;;;;;;18.80;57.42;99711.94;5010649;28;20167;-75
2023/07/13 05:51:42;;;;;;;7.32;2.40;;;;;;;18.80;57.87;99716.44;5000504;28;20072;-77
2023/07/13 05:54:09;;;;;;;9.30;2.50;;;;;;;18.80;57.83;99713.78;4990886;28;20050;-75
2023/07/13 05:56:36;;;;;;;6.93;2.53;;;;;;;18.79;58.09;99715.59;4990361;28;20051;-76
2023/07/13 05:59:03;;;;;;;4.68;1.88;;;;;;;18.80;58.51;99725.25;4990968;28;20105;-75
2023/07/13 06:01:30;;;;;;;9.73;2.60;;;;;;;18.83;58.54;99725.00;4994625;28;20101;-75
2023/07/13 06:03:57;;;;;;;7.30;2.10;;;;;;;18.86;58.58;99721.19;5011502;28;20054;-75
2023/07/13 06:06:24;;;;;;;14.82;3.13;;;;;;;18.90;58.69;99722.59;5014010;28;20058;-75
2023/07/13 06:08:51;;;;;;;8.50;2.78;;;;;;;18.94;58.65;99726.66;5028783;28;20559;-76
2023/07/13 06:11:21;;;;;;;6.10;2.78;;;;;;;18.96;58.38;99738.03;4995261;28;20093;-75
2023/07/13 06:13:48;;;;;;;8.25;2.53;;;;;;;19.00;58.69;99736.75;5008308;28;20081;-76
2023/07/13 06:16:15;;;;;;;6.10;2.58;;;;;;;19.04;59.06;99742.66;5007422;28;20516;-75
2023/07/13 06:18:42;;;;;;;9.75;2.67;;;;;;;19.10;58.70;99734.09;4992722;28;20084;-76
2023/07/13 06:21:17;;;;;;;10.73;2.85;;;;;;;19.12;59.21;99742.81;4993328;28;20507;-75
2023/07/13 06:23:47;;;;;;;9.40;2.85;;;;;;;19.19;58.95;99743.06;5011268;28;20676;-75
2023/07/13 06:26:14;;;;;;;7.97;2.88;;;;;;;19.23;58.69;99744.47;5012863;28;20085;-76
2023/07/13 06:28:41;;;;;;;9.88;2.90;;;;;;;19.26;58.56;99733.50;4996129;28;20050;-75
2023/07/13 06:31:09;;;;;;;8.80;3.28;;;;;;;19.31;58.73;99746.41;5013686;28;20405;-75
2023/07/13 06:33:37;;;;;;;6.32;2.70;;;;;;;19.35;58.52;99747.81;5014757;28;20800;-76
2023/07/13 06:36:05;;;;;;;11.38;2.63;;;;;;;19.38;58.97;99747.53;5009473;28;20046;-75
2023/07/13 06:38:32;;;;;;;7.82;2.85;;;;;;;19.43;59.04;99748.91;4994122;28;20054;-75
2023/07/13 06:40:59;;;;;;;9.10;2.83;;;;;;;19.48;59.10;99754.66;4993905;28;20042;-75
2023/07/13 06:43:26;;;;;;;7.03;2.72;;;;;;;19.51;59.26;99760.53;5018736;28;20053;-77
2023/07/13 06:45:55;;;;;;;9.20;2.72;;;;;;;19.56;59.10;99760.09;5013167;28;20108;-75
2023/07/13 06:48:22;;;;;;;6.93;2.80;;;;;;;19.62;59.08;99751.50;5012628;28;20050;-76
2023/07/13 06:50:50;;;;;;;7.60;2.35;;;;;;;19.67;58.83;99751.06;5012990;28;20085;-76
2023/07/13 06:53:19;;;;;;;10.13;2.78;;;;;;;19.72;58.97;99756.81;5006536;28;20042;-76
2023/07/13 06:55:46;;;;;;;7.78;3.10;;;;;;;19.78;59.13;99755.38;4993319;28;20046;-76
2023/07/13 06:58:13;;;;;;;8.27;3.33;;;;;;;19.83;59.14;99755.78;4992708;28;20133;-75
2023/07/13 07:00:40;;;;;;;10.73;3.47;;;;;;;19.89;58.76;99762.34;4992964;28;20051;-76
2023/07/13 07:03:10;;;;;;;7.88;2.88;;;;;;;19.92;58.84;99752.22;4993708;28;20133;-75
2023/07/13 07:05:37;;;;;;;7.38;3.17;;;;;;;19.98;59.09;99758.81;4992597;28;20498;-76
2023/07/13 07:08:04;;;;;;;7.88;2.75;;;;;;;20.04;59.27;99758.22;4992702;28;20050;-74
2023/07/13 07:10:31;;;;;;;7.20;2.95;;;;;;;20.12;59.39;99761.97;4993036;28;20043;-75
2023/07/13 07:12:58;;;;;;;9.02;3.88;;;;;;;20.20;59.11;99766.56;4993047;28;20050;-76
2023/07/13 07:15:25;;;;;;;7.30;2.58;;;;;;;20.26;58.90;99769.47;5008625;28;20049;-75
2023/07/13 07:17:52;;;;;;;11.85;3.38;;;;;;;20.34;59.02;99768.75;5012101;28;20505;-76
2023/07/13 07:20:20;;;;;;;9.00;3.05;;;;;;;20.41;58.95;99767.13;5012715;28;20060;-75
2023/07/13 07:22:48;;;;;;;7.38;2.42;;;;;;;20.50;58.55;99759.19;5011237;28;20054;-75
2023/07/13 07:25:15;;;;;;;5.43;2.38;;;;;;;20.56;58.62;99777.31;4993195;28;20078;-76
2023/07/13 07:27:41;;;;;;;8.13;3.15;;;;;;;20.63;58.76;99773.00;4993009;28;20050;-74
2023/07/13 07:30:11;;;;;;;8.02;2.92;;;;;;;20.70;58.41;99775.91;4993140;28;20116;-75
2023/07/13 07:32:41;;;;;;;6.63;2.28;;;;;;;20.78;58.40;99770.63;4993102;28;20050;-76
2023/07/13 07:35:23;;;;;;;8.35;2.20;;;;;;;20.85;58.03;99776.22;5025358;28;20085;-76
2023/07/13 07:37:49;;;;;;;7.65;2.72;;;;;;;20.91;58.07;99770.28;5012099;28;20089;-75
2023/07/13 07:40:18;;;;;;;7.45;2.65;;;;;;;20.98;57.96;99769.66;5012395;28;20382;-75
2023/07/13 07:42:47;;;;;;;5.65;2.55;;;;;;;21.06;58.07;99769.72;4995132;28;20104;-76
2023/07/13 07:45:14;;;;;;;10.48;3.22;;;;;;;21.14;58.21;99775.13;4996499;28;20081;-75
2023/07/13 07:47:41;;;;;;;5.70;2.38;;;;;;;21.24;58.10;99775.03;4992803;28;20050;-75
2023/07/13 07:50:09;;;;;;;10.40;2.80;;;;;;;21.34;58.02;99777.59;4992813;28;20046;-75
2023/07/13 07:52:35;;;;;;;5.72;2.42;;;;;;;21.45;57.95;99777.34;5007714;28;20100;-78
2023/07/13 07:55:04;;;;;;;7.57;2.50;;;;;;;21.57;57.72;99779.75;4992537;28;20457;-76
2023/07/13 07:57:34;;;;;;;4.95;2.45;;;;;;;21.68;57.27;99776.78;4997068;28;20077;-76
2023/07/13 08:00:23;;;;;;;10.35;3.10;;;;;;;21.81;56.26;99778.22;4992302;28;20502;-76
2023/07/13 08:02:53;;;;;;;8.48;2.80;;;;;;;21.91;57.06;99789.69;4992329;28;20493;-76
2023/07/13 08:05:22;;;;;;;6.28;2.47;;;;;;;21.97;56.98;99785.47;4992405;28;20093;-74
2023/07/13 08:08:05;;;;;;;7.07;2.45;;;;;;;22.06;56.80;99789.91;5005543;28;20050;-75
2023/07/13 08:10:31;;;;;;;7.07;2.65;;;;;;;22.13;56.47;99790.09;4992078;28;20097;-77
2023/07/13 08:12:58;;;;;;;4.55;2.40;;;;;;;22.18;56.19;99782.41;4992458;28;20105;-77
2023/07/13 08:15:28;;;;;;;6.38;2.80;;;;;;;22.24;56.14;99787.09;5000684;28;20053;-75
2023/07/13 08:17:55;;;;;;;5.35;2.95;;;;;;;22.31;56.26;99784.59;5026759;28;20485;-76
2023/07/13 08:20:23;;;;;;;8.63;3.17;;;;;;;22.37;56.20;99775.91;5011479;28;20486;-75
2023/07/13 08:22:50;;;;;;;6.13;2.60;;;;;;;22.48;55.74;99784.63;5011815;28;20477;-75
2023/07/13 08:25:17;;;;;;;6.55;2.67;;;;;;;22.56;55.47;99782.00;5006701;28;20050;-74
2023/07/13 08:27:43;;;;;;;5.80;2.75;;;;;;;22.63;55.10;99780.34;4990982;28;20714;-75
2023/07/13 08:30:10;;;;;;;10.02;2.80;;;;;;;22.69;55.29;99791.41;5006915;28;20086;-74
2023/07/13 08:32:37;;;;;;;10.50;2.97;;;;;;;22.75;55.33;99785.38;4991828;28;20118;-76
2023/07/13 08:35:05;;;;;;;7.35;2.60;;;;;;;22.80;55.10;99788.38;4991918;28;20058;-75
2023/07/13 08:37:32;;;;;;;5.50;2.65;;;;;;;22.87;54.93;99784.03;4990883;28;20077;-76
2023/07/13 08:39:58;;;;;;;5.78;2.58;;;;;;;22.93;54.22;99793.25;4992059;28;20046;-75
2023/07/13 08:42:32;;;;;;;6.32;3.30;;;;;;;22.95;53.48;99795.78;5083424;22;20398;-78
2023/07/13 08:45:43;;;;;;;10.40;2.58;;;;;;;22.94;53.59;99783.38;5028987;28;20392;-82
2023/07/13 08:48:19;;;;;;;6.00;2.70;;;;;;;23.03;54.32;99793.91;5029163;28;20515;-80
2023/07/13 08:50:57;;;;;;;5.28;2.75;;;;;;;23.12;53.28;99800.13;5029353;28;20059;-79
2023/07/13 08:53:36;;;;;;;9.77;3.40;;;;;;;23.15;53.26;99791.75;5008184;28;20049;-78
2023/07/13 08:56:16;;;;;;;8.45;2.80;;;;;;;23.21;53.31;99784.84;4991743;28;21133;-79
2023/07/13 08:58:43;;;;;;;9.07;3.30;;;;;;;23.30;53.62;99785.69;5009444;28;20053;-80
2023/07/13 09:01:29;;;;;;;7.57;3.20;;;;;;;23.32;53.05;99801.63;5010288;28;20060;-80
2023/07/13 09:04:09;;;;;;;4.85;2.63;;;;;;;23.39;51.67;99794.56;5010236;28;20046;-80
2023/07/13 09:06:41;;;;;;;7.07;3.17;;;;;;;23.40;52.26;99788.22;5010160;28;20434;-79
2023/07/13 09:09:26;;;;;;;10.40;3.88;;;;;;;23.37;51.79;99785.88;5010206;28;20076;-79
2023/07/13 09:12:14;;;;;;;6.97;3.08;;;;;;;23.34;53.04;99791.56;5010357;28;20476;-79
2023/07/13 09:14:48;;;;;;;6.43;2.58;;;;;;;23.35;52.92;99794.09;5010347;28;20057;-79
2023/07/13 09:17:33;;;;;;;6.50;2.90;;;;;;;23.35;52.51;99793.25;5010682;28;20050;-80
2023/07/13 09:20:16;;;;;;;7.13;2.90;;;;;;;23.36;53.25;99789.56;5010254;28;20042;-80
2023/07/13 09:22:43;;;;;;;6.93;3.40;;;;;;;23.41;53.86;99792.56;5009719;28;20054;-79
2023/07/13 09:25:13;;;;;;;7.93;3.53;;;;;;;23.43;52.23;99788.72;5009528;28;20081;-79
2023/07/13 09:27:43;;;;;;;8.50;3.35;;;;;;;23.47;53.60;99791.88;5009431;28;20056;-79
2023/07/13 09:30:13;;;;;;;6.40;3.08;;;;;;;23.51;51.98;99797.78;5009065;28;20513;-79
2023/07/13 09:32:45;;;;;;;6.90;3.42;;;;;;;23.51;51.72;99793.22;5009964;28;20057;-79
2023/07/13 09:35:15;;;;;;;7.60;3.60;;;;;;;23.55;52.23;99799.09;5009760;28;20100;-79
2023/07/13 09:37:45;;;;;;;5.22;2.85;;;;;;;23.58;52.60;99789.84;5009872;28;20057;-79
2023/07/13 09:40:25;;;;;;;7.40;3.40;;;;;;;23.61;51.49;99800.22;5013266;28;20054;-79
2023/07/13 09:42:54;;;;;;;5.88;3.72;;;;;;;23.71;52.01;99800.06;5024383;28;20054;-79
2023/07/13 09:45:33;;;;;;;6.97;3.45;;;;;;;23.74;51.37;99797.03;5033249;28;20500;-79
2023/07/13 09:48:06;;;;;;;8.30;3.70;;;;;;;23.84;51.82;99799.53;5033436;28;20053;-79
2023/07/13 09:50:32;;;;;;;7.93;3.55;;;;;;;23.91;51.90;99793.25;5033547;28;20065;-79
2023/07/13 09:53:01;;;;;;;5.80;2.83;;;;;;;24.01;52.46;99795.75;5032852;28;20416;-79
2023/07/13 09:55:30;;;;;;;9.68;3.42;;;;;;;24.14;52.26;99805.13;5033292;28;20055;-79
2023/07/13 09:57:57;;;;;;;6.00;3.05;;;;;;;24.27;51.92;99797.34;5033638;28;20045;-79
2023/07/13 10:00:29;;;;;;;7.38;3.22;;;;;;;24.41;50.54;99806.47;5033185;28;20140;-79
2023/07/13 10:03:12;;;;;;;7.90;2.97;;;;;;;24.53;50.44;99806.94;5033200;28;20057;-79
2023/07/13 10:05:41;;;;;;;6.93;2.95;;;;;;;24.68;50.23;99809.69;5033112;28;20049;-79
2023/07/13 10:08:20;;;;;;;7.57;2.70;;;;;;;24.79;49.55;99816.50;5033065;28;20107;-79
2023/07/13 10:10:53;;;;;;;8.88;3.03;;;;;;;24.90;49.02;99800.97;5032897;28;20064;-79
2023/07/13 10:13:27;;;;;;;;;;;;;;;24.95;50.39;99814.72;5015455;28;20412;-79
2023/07/13 10:15:56;;;;;;;5.38;3.08;;;;;;;25.02;49.57;99804.06;5032874;28;19921;-80
2023/07/13 10:18:25;;;;;;;8.60;3.08;;;;;;;24.98;48.68;99809.00;5032808;28;20061;-80
2023/07/13 10:21:14;;;;;;;9.02;3.33;;;;;;;24.84;48.85;99816.00;5032986;28;20057;-79
2023/07/13 10:23:48;;;;;;;4.95;3.20;;;;;;;24.82;49.59;99805.38;5032584;28;20050;-79
2023/07/13 10:26:22;;;;;;;5.15;3.08;;;;;;;24.82;49.58;99812.63;5032607;28;20067;-79
2023/07/13 10:28:55;;;;;;;9.40;3.72;;;;;;;24.85;49.24;99814.97;5032571;28;20050;-79
2023/07/13 10:31:22;;;;;;;;;;;;;;;24.91;50.66;99818.78;5032792;28;20385;-79
2023/07/13 10:33:49;;;;;;;7.57;3.60;;;;;;;25.07;50.74;99813.28;5032192;28;19921;-79
2023/07/13 10:36:31;;;;;;;6.93;3.60;;;;;;;25.18;49.87;99820.09;5014930;28;20054;-79
2023/07/13 10:39:00;;;;;;;8.18;3.95;;;;;;;25.34;49.85;99811.00;5032567;28;20053;-79
2023/07/13 10:41:29;;;;;;;9.35;3.92;;;;;;;25.49;49.94;99816.41;5031889;28;20049;-79
2023/07/13 10:43:57;;;;;;;7.13;3.13;;;;;;;25.63;49.45;99806.72;5031673;28;20042;-79
2023/07/13 10:46:30;;;;;;;6.47;2.88;;;;;;;25.81;49.49;99820.81;5014707;28;20352;-79
2023/07/13 10:48:59;;;;;;;;;;;;;;;25.97;50.48;99812.53;5032663;28;20488;-79
2023/07/13 10:51:27;;;;;;;5.45;2.63;;;;;;;26.27;49.83;99819.78;5031360;28;20276;-79
2023/07/13 10:54:17;;;;;;;5.20;2.70;;;;;;;26.50;48.66;99814.22;5014447;28;20041;-79
2023/07/13 10:56:46;;;;;;;;;;;;;;;26.84;50.75;99814.56;5032657;28;20055;-79
2023/07/13 10:59:25;;;;;;;7.22;2.75;;;;;;;27.21;48.31;99827.97;5032340;28;19929;-79
2023/07/13 11:02:10;;;;;;;6.55;2.90;;;;;;;27.40;47.84;99829.16;5032161;28;20052;-79
2023/07/13 11:04:44;;;;;;;5.25;2.60;;;;;;;27.63;46.63;99825.41;5031947;28;20475;-79
2023/07/13 11:07:19;;;;;;;9.63;2.78;;;;;;;27.78;44.18;99819.03;5031768;28;20049;-79
2023/07/13 11:09:53;;;;;;;5.22;2.55;;;;;;;27.86;44.34;99829.69;5032087;28;20046;-79
2023/07/13 11:12:19;;;;;;;7.97;2.67;;;;;;;27.85;44.33;99819.91;5031902;28;20490;-79
2023/07/13 11:14:55;;;;;;;7.30;2.40;;;;;;;27.76;44.21;99826.50;5031440;28;20420;-79
2023/07/13 11:17:37;;;;;;;6.45;2.90;;;;;;;27.68;44.33;99822.09;5031579;28;20049;-79
2023/07/13 11:20:13;;;;;;;5.13;2.25;;;;;;;27.63;43.50;99811.91;5031785;28;20492;-79
2023/07/13 11:22:49;;;;;;;11.82;2.78;;;;;;;27.55;43.24;99812.03;5031429;28;20156;-79
2023/07/13 11:25:32;;;;;;;5.63;2.40;;;;;;;27.40;43.00;99818.34;5031509;28;20053;-79
2023/07/13 11:28:10;;;;;;;;;;;;;;;27.29;44.96;99821.63;5031344;28;20492;-79
2023/07/13 11:30:46;;;;;;;4.45;2.00;;;;;;;27.21;43.69;99821.75;5031547;28;20376;-80
2023/07/13 11:33:20;;;;;;;4.00;2.00;;;;;;;27.19;44.19;99827.34;5031222;28;20052;-80
2023/07/13 11:36:15;;;;;;;5.43;2.20;;;;;;;27.25;44.16;99812.22;5031424;28;20057;-80
2023/07/13 11:38:50;;;;;;;5.38;2.17;;;;;;;27.52;44.72;99820.53;5013761;28;20075;-80
2023/07/13 11:41:21;;;;;;;4.75;2.05;;;;;;;27.76;44.31;99812.97;5013776;28;20068;-79
2023/07/13 11:43:53;;;;;;;4.85;2.08;;;;;;;27.97;42.76;99815.59;5030436;28;20045;-79
2023/07/13 11:46:23;;;;;;;4.03;2.03;;;;;;;28.18;42.83;99816.50;5013083;28;20141;-79
2023/07/13 11:48:50;;;;;;;6.25;2.25;;;;;;;28.38;42.77;99807.66;5030263;28;20055;-79